sensor_id;sensor_type;location;lat;lon;timestamp;pressure;altitude;pressure_sealevel;temperature;humidity
31299;BME280;17927;52.350;13.402;2023-04-01T00:01:48;99273.84;;;13.94;61.18
31299;BME280;17927;52.350;13.402;2023-04-01T00:04:13;99279.28;;;13.94;61.11
31299;BME280;17927;52.350;13.402;2023-04-01T00:06:38;99276.78;;;13.92;61.40
31299;BME280;17927;52.350;13.402;2023-04-01T00:09:04;99276.78;;;13.92;61.31
31299;BME280;17927;52.350;13.402;2023-04-01T00:11:29;99282.22;;;13.92;61.41
31299;BME280;17927;52.350;13.402;2023-04-01T00:13:55;99282.00;;;13.94;61.43
31299;BME280;17927;52.350;13.402;2023-04-01T00:16:20;99282.81;;;13.94;61.32
31299;BME280;17927;52.350;13.402;2023-04-01T00:18:46;99285.53;;;13.94;61.50
31299;BME280;17927;52.350;13.402;2023-04-01T00:21:15;99288.25;;;13.94;61.33
31299;BME280;17927;52.350;13.402;2023-04-01T00:23:41;99290.97;;;13.94;61.27
31299;BME280;17927;52.350;13.402;2023-04-01T00:26:06;99286.59;;;13.93;61.28
31299;BME280;17927;52.350;13.402;2023-04-01T00:28:34;99286.78;;;13.92;61.40
31299;BME280;17927;52.350;13.402;2023-04-01T00:31:04;99289.72;;;13.90;61.48
31299;BME280;17927;52.350;13.402;2023-04-01T00:33:30;99279.25;;;13.87;61.50
31299;BME280;17927;52.350;13.402;2023-04-01T00:35:55;99289.47;;;13.85;61.27
31299;BME280;17927;52.350;13.402;2023-04-01T00:38:21;99280.28;;;13.86;61.35
31299;BME280;17927;52.350;13.402;2023-04-01T00:40:47;99288.44;;;13.86;61.57
31299;BME280;17927;52.350;13.402;2023-04-01T00:43:17;99283.63;;;13.88;61.57
31299;BME280;17927;52.350;13.402;2023-04-01T00:45:45;99288.03;;;13.89;61.60
31299;BME280;17927;52.350;13.402;2023-04-01T00:48:16;99289.88;;;13.89;61.54
31299;BME280;17927;52.350;13.402;2023-04-01T00:50:46;99284.47;;;13.89;61.42
31299;BME280;17927;52.350;13.402;2023-04-01T00:53:13;99281.09;;;13.86;61.68
31299;BME280;17927;52.350;13.402;2023-04-01T00:55:43;99271.09;;;13.87;61.65
31299;BME280;17927;52.350;13.402;2023-04-01T00:58:14;99281.09;;;13.86;61.65
31299;BME280;17927;52.350;13.402;2023-04-01T01:00:41;99284.47;;;13.89;61.72
31299;BME280;17927;52.350;13.402;2023-04-01T01:03:07;99283.44;;;13.90;61.71
31299;BME280;17927;52.350;13.402;2023-04-01T01:05:54;99287.81;;;13.91;61.76
31299;BME280;17927;52.350;13.402;2023-04-01T01:08:43;99283.44;;;13.90;61.68
31299;BME280;17927;52.350;13.402;2023-04-01T01:11:12;99282.41;;;13.91;61.94
31299;BME280;17927;52.350;13.402;2023-04-01T01:13:45;99286.59;;;13.93;61.78
31299;BME280;17927;52.350;13.402;2023-04-01T01:16:25;99285.53;;;13.94;61.86
31299;BME280;17927;52.350;13.402;2023-04-01T01:18:58;99282.63;;;13.96;61.90
31299;BME280;17927;52.350;13.402;2023-04-01T01:21:54;99287.03;;;13.97;61.94
31299;BME280;17927;52.350;13.402;2023-04-01T01:27:11;99283.69;;;13.95;61.96
31299;BME280;17927;52.350;13.402;2023-04-01T01:30:00;99285.34;;;13.96;61.89
31299;BME280;17927;52.350;13.402;2023-04-01T01:33:09;99281.19;;;13.93;61.79
31299;BME280;17927;52.350;13.402;2023-04-01T01:35:50;99283.03;;;13.93;61.90
31299;BME280;17927;52.350;13.402;2023-04-01T01:38:20;99284.50;;;13.95;62.01
31299;BME280;17927;52.350;13.402;2023-04-01T01:40:49;99279.91;;;13.96;61.94
31299;BME280;17927;52.350;13.402;2023-04-01T01:43:21;99284.09;;;13.98;61.93
31299;BME280;17927;52.350;13.402;2023-04-01T01:45:52;99281.19;;;14.00;61.90
31299;BME280;17927;52.350;13.402;2023-04-01T01:48:19;99285.78;;;13.99;61.87
31299;BME280;17927;52.350;13.402;2023-04-01T01:50:46;99287.47;;;14.00;61.87
31299;BME280;17927;52.350;13.402;2023-04-01T01:53:13;99285.38;;;14.03;61.98
31299;BME280;17927;52.350;13.402;2023-04-01T01:55:41;99290.59;;;14.04;61.96
31299;BME280;17927;52.350;13.402;2023-04-01T01:58:16;99293.53;;;14.03;61.87
31299;BME280;17927;52.350;13.402;2023-04-01T02:00:46;99295.38;;;14.02;61.74
31299;BME280;17927;52.350;13.402;2023-04-01T02:03:14;99288.09;;;14.03;61.81
31299;BME280;17927;52.350;13.402;2023-04-01T02:05:40;99296.03;;;14.04;62.01
31299;BME280;17927;52.350;13.402;2023-04-01T02:08:09;99297.91;;;14.04;62.06
31299;BME280;17927;52.350;13.402;2023-04-01T02:10:40;99293.31;;;14.04;61.98
31299;BME280;17927;52.350;13.402;2023-04-01T02:13:15;99294.34;;;14.03;62.13
31299;BME280;17927;52.350;13.402;2023-04-01T02:15:45;99291.63;;;14.03;62.05
31299;BME280;17927;52.350;13.402;2023-04-01T02:18:13;99300.41;;;14.05;61.97
31299;BME280;17927;52.350;13.402;2023-04-01T02:20:40;99296.66;;;14.06;61.96
31299;BME280;17927;52.350;13.402;2023-04-01T02:23:06;99294.81;;;14.07;61.77
31299;BME280;17927;52.350;13.402;2023-04-01T02:25:35;99296.66;;;14.06;61.94
31299;BME280;17927;52.350;13.402;2023-04-01T02:28:04;99300.41;;;14.05;61.97
31299;BME280;17927;52.350;13.402;2023-04-01T02:30:31;99301.28;;;14.06;62.10
31299;BME280;17927;52.350;13.402;2023-04-01T02:32:58;99300.25;;;14.07;62.05
31299;BME280;17927;52.350;13.402;2023-04-01T02:35:24;99295.84;;;14.06;62.07
31299;BME280;17927;52.350;13.402;2023-04-01T02:37:52;99299.38;;;14.06;61.96
31299;BME280;17927;52.350;13.402;2023-04-01T02:40:17;99301.28;;;14.06;62.11
31299;BME280;17927;52.350;13.402;2023-04-01T02:42:43;99305.84;;;14.05;61.92
31299;BME280;17927;52.350;13.402;2023-04-01T02:45:08;99313.34;;;14.03;62.16
31299;BME280;17927;52.350;13.402;2023-04-01T02:47:34;99304.59;;;14.01;62.10
31299;BME280;17927;52.350;13.402;2023-04-01T02:50:00;99318.34;;;13.99;62.06
31299;BME280;17927;52.350;13.402;2023-04-01T02:52:26;99309.56;;;13.97;62.16
31299;BME280;17927;52.350;13.402;2023-04-01T02:54:51;99318.75;;;13.96;62.14
31299;BME280;17927;52.350;13.402;2023-04-01T02:57:16;99319.78;;;13.95;62.01
31299;BME280;17927;52.350;13.402;2023-04-01T02:59:42;99309.97;;;13.94;62.31
31299;BME280;17927;52.350;13.402;2023-04-01T03:02:07;99317.28;;;13.94;62.29
31299;BME280;17927;52.350;13.402;2023-04-01T03:04:32;99321.69;;;13.95;62.39
31299;BME280;17927;52.350;13.402;2023-04-01T03:06:58;99317.06;;;13.95;62.24
31299;BME280;17927;52.350;13.402;2023-04-01T03:09:23;99316.03;;;13.96;62.38
31299;BME280;17927;52.350;13.402;2023-04-01T03:11:48;99323.16;;;13.97;62.39
31299;BME280;17927;52.350;13.402;2023-04-01T03:14:13;99326.88;;;13.96;62.19
31299;BME280;17927;52.350;13.402;2023-04-01T03:16:39;99319.19;;;13.93;62.27
31299;BME280;17927;52.350;13.402;2023-04-01T03:19:04;99317.50;;;13.92;62.38
31299;BME280;17927;52.350;13.402;2023-04-01T03:21:29;99321.03;;;13.93;62.21
31299;BME280;17927;52.350;13.402;2023-04-01T03:23:54;99331.25;;;13.91;62.38
31299;BME280;17927;52.350;13.402;2023-04-01T03:26:20;99325.81;;;13.91;62.46
31299;BME280;17927;52.350;13.402;2023-04-01T03:28:46;99326.84;;;13.90;62.65
31299;BME280;17927;52.350;13.402;2023-04-01T03:31:12;99325.19;;;13.89;62.53
31299;BME280;17927;52.350;13.402;2023-04-01T03:33:37;99330.44;;;13.90;62.58
31299;BME280;17927;52.350;13.402;2023-04-01T03:36:03;99335.63;;;13.92;62.74
31299;BME280;17927;52.350;13.402;2023-04-01T03:38:34;99339.22;;;13.92;62.72
31299;BME280;17927;52.350;13.402;2023-04-01T03:40:59;99335.63;;;13.92;62.68
31299;BME280;17927;52.350;13.402;2023-04-01T03:43:24;99337.31;;;13.93;62.90
31299;BME280;17927;52.350;13.402;2023-04-01T03:45:51;99336.28;;;13.94;62.93
31299;BME280;17927;52.350;13.402;2023-04-01T03:48:17;99337.09;;;13.94;62.76
31299;BME280;17927;52.350;13.402;2023-04-01T03:50:43;99342.34;;;13.96;62.81
31299;BME280;17927;52.350;13.402;2023-04-01T03:53:09;99344.03;;;13.97;62.84
31299;BME280;17927;52.350;13.402;2023-04-01T03:55:37;99349.25;;;13.98;62.97
31299;BME280;17927;52.350;13.402;2023-04-01T03:58:04;99351.16;;;13.98;63.05
31299;BME280;17927;52.350;13.402;2023-04-01T04:00:30;99359.72;;;14.01;62.81
31299;BME280;17927;52.350;13.402;2023-04-01T04:02:56;99355.13;;;14.02;62.73
31299;BME280;17927;52.350;13.402;2023-04-01T04:05:23;99355.97;;;14.03;62.98
31299;BME280;17927;52.350;13.402;2023-04-01T04:07:48;99357.00;;;14.01;63.09
31299;BME280;17927;52.350;13.402;2023-04-01T04:10:13;99356.19;;;14.01;63.05
31299;BME280;17927;52.350;13.402;2023-04-01T04:12:39;99364.94;;;14.03;62.95
31299;BME280;17927;52.350;13.402;2023-04-01T04:15:06;99361.41;;;14.03;62.95
31299;BME280;17927;52.350;13.402;2023-04-01T04:17:32;99372.25;;;14.03;62.98
31299;BME280;17927;52.350;13.402;2023-04-01T04:19:57;99369.34;;;14.04;63.02
31299;BME280;17927;52.350;13.402;2023-04-01T04:22:22;99367.66;;;14.03;63.12
31299;BME280;17927;52.350;13.402;2023-04-01T04:24:48;99374.59;;;14.06;63.00
31299;BME280;17927;52.350;13.402;2023-04-01T04:27:13;99380.66;;;14.08;63.01
31299;BME280;17927;52.350;13.402;2023-04-01T04:29:38;99377.72;;;14.09;63.02
31299;BME280;17927;52.350;13.402;2023-04-01T04:32:03;99379.41;;;14.10;63.23
31299;BME280;17927;52.350;13.402;2023-04-01T04:34:29;99375.84;;;14.10;63.08
31299;BME280;17927;52.350;13.402;2023-04-01T04:36:54;99372.28;;;14.09;63.02
31299;BME280;17927;52.350;13.402;2023-04-01T04:39:19;99383.16;;;14.09;62.85
31299;BME280;17927;52.350;13.402;2023-04-01T04:41:44;99382.34;;;14.09;63.03
31299;BME280;17927;52.350;13.402;2023-04-01T04:44:10;99381.47;;;14.08;63.02
31299;BME280;17927;52.350;13.402;2023-04-01T04:46:35;99384.84;;;14.10;63.02
31299;BME280;17927;52.350;13.402;2023-04-01T04:49:02;99382.94;;;14.11;63.00
31299;BME280;17927;52.350;13.402;2023-04-01T04:51:27;99389.22;;;14.11;62.92
31299;BME280;17927;52.350;13.402;2023-04-01T04:53:52;99388.38;;;14.11;63.03
31299;BME280;17927;52.350;13.402;2023-04-01T04:56:22;99391.09;;;14.11;63.00
31299;BME280;17927;52.350;13.402;2023-04-01T04:58:47;99392.78;;;14.12;63.01
31299;BME280;17927;52.350;13.402;2023-04-01T05:01:15;99396.34;;;14.12;63.15
31299;BME280;17927;52.350;13.402;2023-04-01T05:03:41;99396.13;;;14.14;63.06
31299;BME280;17927;52.350;13.402;2023-04-01T05:06:08;99394.25;;;14.14;63.03
31299;BME280;17927;52.350;13.402;2023-04-01T05:08:34;99399.69;;;14.14;63.01
31299;BME280;17927;52.350;13.402;2023-04-01T05:11:01;99395.09;;;14.15;62.95
31299;BME280;17927;52.350;13.402;2023-04-01T05:13:27;99396.56;;;14.18;62.94
31299;BME280;17927;52.350;13.402;2023-04-01T05:15:52;99401.81;;;14.19;63.27
31299;BME280;17927;52.350;13.402;2023-04-01T05:18:17;99402.63;;;14.20;63.14
31299;BME280;17927;52.350;13.402;2023-04-01T05:20:51;99401.59;;;14.21;62.79
31299;BME280;17927;52.350;13.402;2023-04-01T05:23:17;99404.31;;;14.21;63.21
31299;BME280;17927;52.350;13.402;2023-04-01T05:25:43;99405.16;;;14.21;63.12
31299;BME280;17927;52.350;13.402;2023-04-01T05:28:08;99410.59;;;14.21;63.17
31299;BME280;17927;52.350;13.402;2023-04-01T05:30:33;99404.13;;;14.22;63.26
31299;BME280;17927;52.350;13.402;2023-04-01T05:32:59;99406.00;;;14.22;63.40
31299;BME280;17927;52.350;13.402;2023-04-01T05:35:24;99415.81;;;14.23;63.29
31299;BME280;17927;52.350;13.402;2023-04-01T05:37:49;99409.56;;;14.22;63.39
31299;BME280;17927;52.350;13.402;2023-04-01T05:40:14;99411.44;;;14.22;63.45
31299;BME280;17927;52.350;13.402;2023-04-01T05:42:40;99419.38;;;14.23;63.41
31299;BME280;17927;52.350;13.402;2023-04-01T05:45:05;99413.53;;;14.26;63.42
31299;BME280;17927;52.350;13.402;2023-04-01T05:47:31;99417.09;;;14.27;63.49
31299;BME280;17927;52.350;13.402;2023-04-01T05:49:56;99424.22;;;14.28;63.51
31299;BME280;17927;52.350;13.402;2023-04-01T05:52:21;99411.47;;;14.28;63.77
31299;BME280;17927;52.350;13.402;2023-04-01T05:54:47;99425.69;;;14.30;63.60
31299;BME280;17927;52.350;13.402;2023-04-01T05:57:12;99417.13;;;14.34;63.61
31299;BME280;17927;52.350;13.402;2023-04-01T05:59:37;99427.59;;;14.37;63.69
31299;BME280;17927;52.350;13.402;2023-04-01T06:02:02;99424.69;;;14.38;63.77
31299;BME280;17927;52.350;13.402;2023-04-01T06:04:33;99432.66;;;14.40;63.79
31299;BME280;17927;52.350;13.402;2023-04-01T06:06:59;99440.19;;;14.44;63.94
31299;BME280;17927;52.350;13.402;2023-04-01T06:09:27;99447.72;;;14.49;63.67
31299;BME280;17927;52.350;13.402;2023-04-01T06:12:19;99445.25;;;14.54;63.65
31299;BME280;17927;52.350;13.402;2023-04-01T06:20:49;99449.22;;;14.58;63.59
31299;BME280;17927;52.350;13.402;2023-04-01T06:26:22;99457.25;;;14.67;63.36
31299;BME280;17927;52.350;13.402;2023-04-01T06:38:00;99461.09;;;14.79;63.52
31299;BME280;17927;52.350;13.402;2023-04-01T06:40:46;99465.25;;;14.82;63.30
31299;BME280;17927;52.350;13.402;2023-04-01T06:43:43;99463.00;;;14.85;63.62
31299;BME280;17927;52.350;13.402;2023-04-01T06:46:26;99472.00;;;14.92;63.67
31299;BME280;17927;52.350;13.402;2023-04-01T06:49:28;99461.56;;;14.96;63.33
31299;BME280;17927;52.350;13.402;2023-04-01T06:52:01;99464.91;;;14.98;63.65
31299;BME280;17927;52.350;13.402;2023-04-01T06:54:40;99471.00;;;15.07;63.72
31299;BME280;17927;52.350;13.402;2023-04-01T06:57:30;99463.50;;;15.16;63.63
31299;BME280;17927;52.350;13.402;2023-04-01T07:00:00;99466.25;;;15.22;63.63
31299;BME280;17927;52.350;13.402;2023-04-01T07:02:35;99465.66;;;15.34;63.47
31299;BME280;17927;52.350;13.402;2023-04-01T07:05:04;99473.22;;;15.45;63.63
31299;BME280;17927;52.350;13.402;2023-04-01T07:07:37;99469.66;;;15.58;63.69
31299;BME280;17927;52.350;13.402;2023-04-01T07:10:12;99465.31;;;15.71;63.75
31299;BME280;17927;52.350;13.402;2023-04-01T07:12:48;99476.84;;;15.79;63.23
31299;BME280;17927;52.350;13.402;2023-04-01T07:15:25;99471.84;;;15.90;63.24
31299;BME280;17927;52.350;13.402;2023-04-01T07:17:57;99480.00;;;15.96;63.14
31299;BME280;17927;52.350;13.402;2023-04-01T07:20:27;99477.06;;;16.05;63.01
31299;BME280;17927;52.350;13.402;2023-04-01T07:22:58;99482.72;;;16.10;63.10
31299;BME280;17927;52.350;13.402;2023-04-01T07:25:27;99484.81;;;16.14;62.48
31299;BME280;17927;52.350;13.402;2023-04-01T07:28:03;99491.75;;;16.17;62.33
31299;BME280;17927;52.350;13.402;2023-04-01T07:30:39;99487.97;;;16.18;61.95
31299;BME280;17927;52.350;13.402;2023-04-01T07:33:15;99485.44;;;16.17;61.70
31299;BME280;17927;52.350;13.402;2023-04-01T07:35:46;99489.84;;;16.18;61.25
31299;BME280;17927;52.350;13.402;2023-04-01T07:41:46;99495.91;;;16.20;61.42
31299;BME280;17927;52.350;13.402;2023-04-01T07:44:25;99499.47;;;16.20;61.59
31299;BME280;17927;52.350;13.402;2023-04-01T07:49:44;99503.88;;;16.35;61.83
31299;BME280;17927;52.350;13.402;2023-04-01T07:52:33;99509.50;;;16.47;61.54
31299;BME280;17927;52.350;13.402;2023-04-01T07:55:06;99498.81;;;16.52;61.46
31299;BME280;17927;52.350;13.402;2023-04-01T07:57:40;99503.19;;;16.59;61.40
31299;BME280;17927;52.350;13.402;2023-04-01T08:00:48;99499.41;;;16.67;61.16
31299;BME280;17927;52.350;13.402;2023-04-01T08:06:07;99502.50;;;16.78;61.23
31299;BME280;17927;52.350;13.402;2023-04-01T08:11:25;99505.41;;;16.89;60.54
31299;BME280;17927;52.350;13.402;2023-04-01T08:17:00;99512.94;;;16.94;60.50
31299;BME280;17927;52.350;13.402;2023-04-01T08:20:23;99512.56;;;16.97;60.38
31299;BME280;17927;52.350;13.402;2023-04-01T08:22:42;99516.31;;;17.03;60.32
31299;BME280;17927;52.350;13.402;2023-04-01T08:25:16;99514.84;;;17.07;60.04
31299;BME280;17927;52.350;13.402;2023-04-01T08:27:51;99519.63;;;17.12;59.65
31299;BME280;17927;52.350;13.402;2023-04-01T08:30:20;99529.28;;;17.14;59.79
31299;BME280;17927;52.350;13.402;2023-04-01T08:32:51;99517.09;;;17.17;59.63
31299;BME280;17927;52.350;13.402;2023-04-01T08:35:32;99524.25;;;17.18;59.34
31299;BME280;17927;52.350;13.402;2023-04-01T08:38:04;99522.97;;;17.20;59.21
31299;BME280;17927;52.350;13.402;2023-04-01T08:40:58;99526.72;;;17.26;59.30
31299;BME280;17927;52.350;13.402;2023-04-01T08:46:17;99528.34;;;17.34;59.06
31299;BME280;17927;52.350;13.402;2023-04-01T08:49:07;99534.16;;;17.44;59.24
31299;BME280;17927;52.350;13.402;2023-04-01T09:00:31;99526.91;;;17.70;59.30
31299;BME280;17927;52.350;13.402;2023-04-01T09:03:22;99532.31;;;17.77;58.91
31299;BME280;17927;52.350;13.402;2023-04-01T09:11:44;99532.78;;;18.06;59.22
31299;BME280;17927;52.350;13.402;2023-04-01T09:14:43;99533.94;;;18.17;58.82
31299;BME280;17927;52.350;13.402;2023-04-01T09:18:13;99538.91;;;18.26;58.88
31299;BME280;17927;52.350;13.402;2023-04-01T09:25:56;99550.06;;;18.50;58.14
31299;BME280;17927;52.350;13.402;2023-04-01T09:28:53;99552.34;;;18.53;57.94
31299;BME280;17927;52.350;13.402;2023-04-01T09:31:38;99551.53;;;18.53;57.72
31299;BME280;17927;52.350;13.402;2023-04-01T09:37:29;99552.56;;;18.52;56.94
31299;BME280;17927;52.350;13.402;2023-04-01T09:40:16;99555.97;;;18.47;56.80
31299;BME280;17927;52.350;13.402;2023-04-01T09:43:12;99562.97;;;18.43;56.47
31299;BME280;17927;52.350;13.402;2023-04-01T09:46:06;99555.19;;;18.40;56.50
31299;BME280;17927;52.350;13.402;2023-04-01T09:54:07;99568.81;;;18.47;57.04
31299;BME280;17927;52.350;13.402;2023-04-01T09:59:49;99584.78;;;18.50;56.62
31299;BME280;17927;52.350;13.402;2023-04-01T10:02:50;99597.03;;;18.40;56.65
31299;BME280;17927;52.350;13.402;2023-04-01T10:06:01;99595.63;;;18.31;56.36
31299;BME280;17927;52.350;13.402;2023-04-01T10:08:58;99596.38;;;18.20;56.53
31299;BME280;17927;52.350;13.402;2023-04-01T10:14:39;99594.59;;;18.00;56.08
31299;BME280;17927;52.350;13.402;2023-04-01T10:23:15;99605.88;;;17.72;56.21
31299;BME280;17927;52.350;13.402;2023-04-01T10:32:02;99610.16;;;17.47;55.92
31299;BME280;17927;52.350;13.402;2023-04-01T10:37:44;99614.66;;;17.28;56.50
31299;BME280;17927;52.350;13.402;2023-04-01T10:49:10;99631.13;;;16.95;56.45
31299;BME280;17927;52.350;13.402;2023-04-01T10:54:23;99625.84;;;16.86;57.01
31299;BME280;17927;52.350;13.402;2023-04-01T10:57:02;99625.66;;;16.81;56.81
31299;BME280;17927;52.350;13.402;2023-04-01T11:08:48;99635.09;;;16.65;57.10
31299;BME280;17927;52.350;13.402;2023-04-01T11:11:42;99639.50;;;16.59;57.59
31299;BME280;17927;52.350;13.402;2023-04-01T11:17:22;99649.53;;;16.59;57.88
31299;BME280;17927;52.350;13.402;2023-04-01T11:20:22;99647.91;;;16.58;58.01
31299;BME280;17927;52.350;13.402;2023-04-01T11:23:17;99653.94;;;16.53;57.99
31299;BME280;17927;52.350;13.402;2023-04-01T11:26:08;99655.44;;;16.56;58.01
31299;BME280;17927;52.350;13.402;2023-04-01T11:28:51;99662.56;;;16.57;58.01
31299;BME280;17927;52.350;13.402;2023-04-01T11:31:47;99651.84;;;16.55;57.60
31299;BME280;17927;52.350;13.402;2023-04-01T11:40:12;99675.13;;;16.44;57.35
31299;BME280;17927;52.350;13.402;2023-04-01T11:43:00;99664.44;;;16.36;57.70
31299;BME280;17927;52.350;13.402;2023-04-01T11:48:27;99674.28;;;16.37;57.88
31299;BME280;17927;52.350;13.402;2023-04-01T11:53:53;99674.28;;;16.37;57.89
31299;BME280;17927;52.350;13.402;2023-04-01T11:56:43;99675.34;;;16.36;57.94
31299;BME280;17927;52.350;13.402;2023-04-01T12:02:01;99683.75;;;16.41;57.84
31299;BME280;17927;52.350;13.402;2023-04-01T12:10:19;99688.16;;;16.49;58.14
31299;BME280;17927;52.350;13.402;2023-04-01T12:13:09;99679.53;;;16.52;57.99
31299;BME280;17927;52.350;13.402;2023-04-01T12:18:48;99702.19;;;16.53;57.69
31299;BME280;17927;52.350;13.402;2023-04-01T12:21:34;99706.19;;;16.50;57.68
31299;BME280;17927;52.350;13.402;2023-04-01T12:24:49;99713.72;;;16.48;57.39
31299;BME280;17927;52.350;13.402;2023-04-01T12:27:26;99722.31;;;16.45;57.40
31299;BME280;17927;52.350;13.402;2023-04-01T12:30:17;99714.13;;;16.45;57.24
31299;BME280;17927;52.350;13.402;2023-04-01T12:33:04;99719.34;;;16.40;57.06
31299;BME280;17927;52.350;13.402;2023-04-01T12:36:00;99728.78;;;16.37;56.87
31299;BME280;17927;52.350;13.402;2023-04-01T12:38:55;99724.78;;;16.33;57.03
31299;BME280;17927;52.350;13.402;2023-04-01T12:44:11;99728.94;;;16.22;57.22
31299;BME280;17927;52.350;13.402;2023-04-01T12:49:55;99739.25;;;16.27;56.59
31299;BME280;17927;52.350;13.402;2023-04-01T12:55:39;99748.47;;;16.26;56.53
31299;BME280;17927;52.350;13.402;2023-04-01T12:58:27;99750.75;;;16.22;56.36
31299;BME280;17927;52.350;13.402;2023-04-01T13:01:25;99749.03;;;16.14;56.20
31299;BME280;17927;52.350;13.402;2023-04-01T13:09:36;99757.34;;;15.93;56.13
31299;BME280;17927;52.350;13.402;2023-04-01T13:15:13;99779.03;;;15.79;55.76
31299;BME280;17927;52.350;13.402;2023-04-01T13:17:52;99767.88;;;15.67;56.07
31299;BME280;17927;52.350;13.402;2023-04-01T13:20:36;99769.53;;;15.62;55.83
31299;BME280;17927;52.350;13.402;2023-04-01T13:23:34;99774.50;;;15.58;55.81
31299;BME280;17927;52.350;13.402;2023-04-01T13:26:15;99778.03;;;15.52;55.74
31299;BME280;17927;52.350;13.402;2023-04-01T13:31:34;99786.59;;;15.49;56.12
31299;BME280;17927;52.350;13.402;2023-04-01T13:37:17;99802.88;;;15.42;56.14
31299;BME280;17927;52.350;13.402;2023-04-01T13:42:29;99808.44;;;15.34;55.99
31299;BME280;17927;52.350;13.402;2023-04-01T13:45:17;99807.84;;;15.32;56.19
31299;BME280;17927;52.350;13.402;2023-04-01T13:48:11;99804.63;;;15.28;55.92
31299;BME280;17927;52.350;13.402;2023-04-01T13:50:49;99812.75;;;15.21;56.04
31299;BME280;17927;52.350;13.402;2023-04-01T13:53:27;99819.81;;;15.16;55.95
31299;BME280;17927;52.350;13.402;2023-04-01T13:56:16;99819.16;;;15.14;55.82
31299;BME280;17927;52.350;13.402;2023-04-01T14:01:33;99832.53;;;15.09;56.03
31299;BME280;17927;52.350;13.402;2023-04-01T14:04:17;99838.53;;;15.04;55.78
31299;BME280;17927;52.350;13.402;2023-04-01T14:06:57;99831.63;;;15.01;55.98
31299;BME280;17927;52.350;13.402;2023-04-01T14:09:51;99840.44;;;15.03;56.04
31299;BME280;17927;52.350;13.402;2023-04-01T14:12:47;99848.53;;;14.97;55.95
31299;BME280;17927;52.350;13.402;2023-04-01T14:15:42;99845.34;;;14.93;56.06
31299;BME280;17927;52.350;13.402;2023-04-01T14:18:36;99850.53;;;14.88;56.03
31299;BME280;17927;52.350;13.402;2023-04-01T14:21:36;99861.59;;;14.86;56.05
31299;BME280;17927;52.350;13.402;2023-04-01T14:24:14;99863.00;;;14.82;56.07
31299;BME280;17927;52.350;13.402;2023-04-01T14:26:50;99864.72;;;14.68;56.28
31299;BME280;17927;52.350;13.402;2023-04-01T14:40:51;99878.03;;;14.78;56.11
31299;BME280;17927;52.350;13.402;2023-04-01T14:43:27;99875.88;;;14.73;56.34
31299;BME280;17927;52.350;13.402;2023-04-01T14:46:21;99884.22;;;14.72;56.18
31299;BME280;17927;52.350;13.402;2023-04-01T14:51:23;99896.22;;;14.62;56.18
31299;BME280;17927;52.350;13.402;2023-04-01T14:56:44;99899.44;;;14.51;56.17
31299;BME280;17927;52.350;13.402;2023-04-01T15:02:08;99905.81;;;14.43;56.29
31299;BME280;17927;52.350;13.402;2023-04-01T15:04:58;99907.41;;;14.38;56.55
31299;BME280;17927;52.350;13.402;2023-04-01T15:07:55;99908.81;;;14.34;56.26
31299;BME280;17927;52.350;13.402;2023-04-01T15:10:53;99903.94;;;14.29;56.42
31299;BME280;17927;52.350;13.402;2023-04-01T15:16:11;99916.41;;;14.23;56.19
31299;BME280;17927;52.350;13.402;2023-04-01T15:21:32;99919.19;;;14.15;56.14
31299;BME280;17927;52.350;13.402;2023-04-01T15:24:11;99929.78;;;14.10;56.19
31299;BME280;17927;52.350;13.402;2023-04-01T15:27:03;99934.56;;;14.08;56.37
31299;BME280;17927;52.350;13.402;2023-04-01T15:29:57;99931.38;;;14.04;56.43
31299;BME280;17927;52.350;13.402;2023-04-01T15:38:08;99941.47;;;13.95;56.26
31299;BME280;17927;52.350;13.402;2023-04-01T15:41:00;99954.00;;;13.96;56.41
31299;BME280;17927;52.350;13.402;2023-04-01T15:46:24;99962.56;;;13.93;56.33
31299;BME280;17927;52.350;13.402;2023-04-01T15:49:04;99965.13;;;13.86;56.31
31299;BME280;17927;52.350;13.402;2023-04-01T15:51:45;99962.13;;;13.81;56.26
31299;BME280;17927;52.350;13.402;2023-04-01T15:54:45;99969.16;;;13.76;56.19
31299;BME280;17927;52.350;13.402;2023-04-01T15:57:20;99973.59;;;13.68;56.41
31299;BME280;17927;52.350;13.402;2023-04-01T16:00:23;99970.22;;;13.66;56.56
31299;BME280;17927;52.350;13.402;2023-04-01T16:03:19;99978.25;;;13.60;56.54
31299;BME280;17927;52.350;13.402;2023-04-01T16:08:41;99984.44;;;13.53;56.45
31299;BME280;17927;52.350;13.402;2023-04-01T16:11:19;99989.34;;;13.50;56.64
31299;BME280;17927;52.350;13.402;2023-04-01T16:19:44;100002.13;;;13.41;56.52
31299;BME280;17927;52.350;13.402;2023-04-01T16:22:27;100005.19;;;13.38;56.59
31299;BME280;17927;52.350;13.402;2023-04-01T16:25:33;100015.38;;;13.36;56.41
31299;BME280;17927;52.350;13.402;2023-04-01T16:28:33;100015.91;;;13.31;56.65
31299;BME280;17927;52.350;13.402;2023-04-01T16:31:07;100014.56;;;13.27;56.85
31299;BME280;17927;52.350;13.402;2023-04-01T16:36:21;100019.53;;;13.23;56.61
31299;BME280;17927;52.350;13.402;2023-04-01T16:41:51;100048.00;;;13.19;56.36
31299;BME280;17927;52.350;13.402;2023-04-01T16:44:20;100052.75;;;13.17;56.53
31299;BME280;17927;52.350;13.402;2023-04-01T16:46:51;100048.53;;;13.15;56.59
31299;BME280;17927;52.350;13.402;2023-04-01T16:49:40;100054.66;;;13.08;56.26
31299;BME280;17927;52.350;13.402;2023-04-01T16:59:38;100065.56;;;12.92;56.57
31299;BME280;17927;52.350;13.402;2023-04-01T17:02:17;100072.34;;;12.88;56.51
31299;BME280;17927;52.350;13.402;2023-04-01T17:04:58;100080.34;;;12.81;56.63
31299;BME280;17927;52.350;13.402;2023-04-01T17:07:38;100077.16;;;12.77;56.59
31299;BME280;17927;52.350;13.402;2023-04-01T17:10:10;100083.25;;;12.71;56.49
31299;BME280;17927;52.350;13.402;2023-04-01T17:15:40;100099.19;;;12.66;56.88